createdAt,value
2018-04-08T00:00:59.370Z,99.90
2018-04-08T00:03:27.931Z,99.90
2018-04-08T00:05:57.192Z,99.90
2018-04-08T00:08:25.684Z,99.90
2018-04-08T00:10:54.187Z,99.90
2018-04-08T00:13:23.434Z,99.90
2018-04-08T00:15:51.911Z,99.90
2018-04-08T00:18:20.397Z,99.90
2018-04-08T00:20:49.097Z,99.90
2018-04-08T00:23:17.574Z,99.90
2018-04-08T00:25:46.048Z,99.90
2018-04-08T00:28:14.534Z,99.90
2018-04-08T00:30:43.125Z,99.90
2018-04-08T00:33:11.621Z,99.90
2018-04-08T00:35:40.302Z,99.90
2018-04-08T00:38:08.882Z,99.90
2018-04-08T00:40:37.371Z,99.90
2018-04-08T00:43:05.863Z,99.90
2018-04-08T00:45:34.692Z,99.90
2018-04-08T00:48:03.971Z,99.90
2018-04-08T00:50:32.137Z,99.90
2018-04-08T00:53:00.058Z,99.90
2018-04-08T00:55:28.577Z,99.90
2018-04-08T00:57:57.049Z,99.90
2018-04-08T01:00:25.551Z,99.90
2018-04-08T01:02:53.760Z,99.90
2018-04-08T01:05:22.435Z,99.90
2018-04-08T01:07:51.734Z,99.90
2018-04-08T01:10:20.221Z,99.90
2018-04-08T01:12:48.738Z,99.90
2018-04-08T01:15:17.247Z,99.90
2018-04-08T01:17:45.478Z,99.90
2018-04-08T01:20:14.928Z,99.90
2018-04-08T01:22:43.498Z,99.90
2018-04-08T01:25:11.975Z,99.90
2018-04-08T01:27:40.610Z,99.90
2018-04-08T01:30:08.974Z,99.90
2018-04-08T01:32:37.441Z,99.90
2018-04-08T01:35:05.932Z,99.90
2018-04-08T01:37:34.531Z,99.90
2018-04-08T01:40:03.034Z,99.90
2018-04-08T01:42:31.506Z,99.90
2018-04-08T01:45:00.002Z,99.90
2018-04-08T01:47:28.543Z,99.90
2018-04-08T01:49:57.022Z,99.90
2018-04-08T01:52:25.530Z,99.90
2018-04-08T01:54:54.017Z,99.90
2018-04-08T01:57:22.515Z,99.90
2018-04-08T01:59:51.106Z,99.90
2018-04-08T02:02:20.389Z,99.90
2018-04-08T02:04:48.878Z,99.90
2018-04-08T02:07:17.474Z,99.90
2018-04-08T02:09:46.831Z,99.90
2018-04-08T02:12:15.318Z,99.90
2018-04-08T02:14:43.842Z,99.90
2018-04-08T02:17:12.333Z,99.90
2018-04-08T02:19:41.696Z,99.90
2018-04-08T02:22:10.190Z,99.90
2018-04-08T02:24:38.758Z,99.90
2018-04-08T02:27:07.374Z,99.90
2018-04-08T02:29:35.965Z,99.90
2018-04-08T02:32:04.466Z,99.90
2018-04-08T02:34:33.703Z,99.90
2018-04-08T02:37:02.199Z,99.90
2018-04-08T02:39:30.770Z,99.90
2018-04-08T02:41:59.246Z,99.90
2018-04-08T02:44:27.743Z,99.90
2018-04-08T02:46:56.223Z,99.90
2018-04-08T02:49:25.777Z,99.90
2018-04-08T02:51:55.122Z,99.90
2018-04-08T02:54:23.615Z,99.90
2018-04-08T02:56:52.115Z,99.90
2018-04-08T02:59:21.527Z,99.90
2018-04-08T03:01:50.049Z,99.90
2018-04-08T03:04:19.310Z,99.90
2018-04-08T03:06:47.819Z,99.90
2018-04-08T03:09:17.171Z,99.90
2018-04-08T03:11:45.735Z,99.90
2018-04-08T03:14:14.218Z,99.90
2018-04-08T03:16:42.726Z,99.90
2018-04-08T03:19:11.226Z,99.90
2018-04-08T03:21:39.729Z,99.90
2018-04-08T03:24:08.110Z,99.90
2018-04-08T03:26:36.618Z,99.90
2018-04-08T03:29:05.858Z,99.90
2018-04-08T03:31:34.439Z,99.90
2018-04-08T03:34:03.014Z,99.90
2018-04-08T03:36:31.498Z,99.90
2018-04-08T03:39:00.181Z,99.90
2018-04-08T03:41:28.670Z,99.90
2018-04-08T03:43:57.154Z,99.90
2018-04-08T03:46:25.628Z,99.90
2018-04-08T03:48:54.230Z,99.90
2018-04-08T03:51:22.707Z,99.90
2018-04-08T03:53:51.194Z,99.90
2018-04-08T03:56:19.967Z,99.90
2018-04-08T03:58:48.844Z,99.90
2018-04-08T04:01:17.087Z,99.90
2018-04-08T04:03:45.582Z,99.90
2018-04-08T04:06:14.591Z,99.90
2018-04-08T04:08:44.134Z,99.90
2018-04-08T04:11:12.383Z,99.90
2018-04-08T04:13:40.630Z,99.90
2018-04-08T04:16:08.884Z,99.90
2018-04-08T04:18:48.263Z,99.90
2018-04-08T04:21:28.462Z,99.90
2018-04-08T04:24:08.102Z,99.90
2018-04-08T04:26:36.454Z,99.90
2018-04-08T04:29:04.930Z,99.90
2018-04-08T04:31:33.970Z,99.90
2018-04-08T04:34:02.649Z,99.90
2018-04-08T04:36:31.150Z,99.90
2018-04-08T04:38:59.770Z,99.90
2018-04-08T04:41:29.062Z,99.90
2018-04-08T04:43:57.547Z,99.90
2018-04-08T04:46:26.034Z,99.90
2018-04-08T04:48:55.283Z,99.90
2018-04-08T04:51:23.914Z,99.90
2018-04-08T04:53:52.502Z,99.90
2018-04-08T04:56:20.868Z,99.90
2018-04-08T04:58:49.602Z,99.90
2018-04-08T05:01:17.927Z,99.90
2018-04-08T05:03:46.216Z,99.90
2018-04-08T05:06:14.882Z,99.90
2018-04-08T05:08:43.366Z,99.90
2018-04-08T05:11:12.127Z,99.90
2018-04-08T05:13:40.767Z,99.90
2018-04-08T05:16:09.250Z,99.90
2018-04-08T05:18:40.955Z,99.90
2018-04-08T05:21:09.487Z,99.90
2018-04-08T05:23:37.981Z,99.90
2018-04-08T05:26:07.227Z,99.90
2018-04-08T05:28:35.819Z,99.90
2018-04-08T05:31:04.303Z,99.90
2018-04-08T05:33:32.809Z,99.90
2018-04-08T05:36:01.282Z,99.90
2018-04-08T05:38:29.751Z,99.90
2018-04-08T05:40:59.270Z,99.90
2018-04-08T05:43:27.951Z,99.90
2018-04-08T05:45:56.454Z,99.90
2018-04-08T05:48:24.951Z,99.90
2018-04-08T05:50:53.740Z,99.90
2018-04-08T05:53:23.116Z,99.90
2018-04-08T05:55:51.614Z,99.90
2018-04-08T05:58:20.213Z,99.90
2018-04-08T06:00:48.850Z,99.90
2018-04-08T06:03:17.331Z,99.90
2018-04-08T06:05:45.827Z,99.90
2018-04-08T06:08:14.495Z,99.90
2018-04-08T06:10:43.077Z,99.90
2018-04-08T06:13:11.571Z,99.90
2018-04-08T06:15:40.062Z,99.90
2018-04-08T06:18:09.171Z,99.90
2018-04-08T06:20:37.603Z,99.90
2018-04-08T06:23:06.105Z,99.90
2018-04-08T06:25:34.348Z,99.90
2018-04-08T06:28:03.439Z,99.90
2018-04-08T06:30:32.510Z,99.90
2018-04-08T06:33:00.879Z,99.90
2018-04-08T06:35:29.130Z,99.90
2018-04-08T06:37:57.423Z,99.90
2018-04-08T06:40:25.691Z,99.90
2018-04-08T06:42:53.975Z,99.90
2018-04-08T06:45:22.570Z,99.90
2018-04-08T06:47:50.807Z,99.90
2018-04-08T06:50:19.095Z,99.90
2018-04-08T06:52:47.699Z,99.90
2018-04-08T06:55:16.172Z,99.90
2018-04-08T06:57:45.587Z,99.90
2018-04-08T07:00:14.055Z,99.90
2018-04-08T07:02:42.271Z,99.90
2018-04-08T07:05:10.547Z,99.90
2018-04-08T07:07:39.029Z,99.90
2018-04-08T07:10:07.306Z,99.90
2018-04-08T07:12:35.792Z,99.90
2018-04-08T07:15:05.567Z,99.90
2018-04-08T07:17:34.065Z,99.90
2018-04-08T07:20:02.552Z,99.90
2018-04-08T07:22:31.086Z,99.90
2018-04-08T07:25:00.354Z,99.90
2018-04-08T07:27:28.890Z,99.90
2018-04-08T07:29:57.166Z,99.90
2018-04-08T07:32:25.701Z,99.90
2018-04-08T07:34:54.207Z,99.90
2018-04-08T07:37:22.715Z,99.90
2018-04-08T07:39:52.006Z,99.90
2018-04-08T07:42:21.294Z,99.90
2018-04-08T07:44:49.966Z,99.90
2018-04-08T07:47:18.493Z,99.90
2018-04-08T07:49:47.001Z,99.90
2018-04-08T07:52:15.705Z,99.90
2018-04-08T07:54:44.207Z,99.90
2018-04-08T07:57:14.219Z,99.90
2018-04-08T07:59:43.487Z,99.90
2018-04-08T08:02:11.974Z,99.90
2018-04-08T08:04:40.494Z,99.90
2018-04-08T08:07:08.998Z,99.90
2018-04-08T08:09:38.254Z,99.90
2018-04-08T08:12:06.726Z,99.90
2018-04-08T08:14:35.247Z,99.90
2018-04-08T08:17:03.908Z,99.90
2018-04-08T08:19:32.462Z,99.90
2018-04-08T08:22:00.955Z,99.90
2018-04-08T08:24:29.640Z,99.90
2018-04-08T08:26:58.209Z,99.90
2018-04-08T08:29:26.859Z,99.90
2018-04-08T08:31:55.430Z,99.90
2018-04-08T08:34:24.823Z,99.90
2018-04-08T08:36:53.346Z,99.90
2018-04-08T08:39:22.599Z,99.90
2018-04-08T08:41:51.102Z,99.90
2018-04-08T08:44:19.590Z,99.90
2018-04-08T08:46:48.135Z,99.90
2018-04-08T08:49:16.742Z,99.90
2018-04-08T08:51:45.442Z,99.90
2018-04-08T08:54:13.930Z,99.90
2018-04-08T08:56:42.478Z,99.90
2018-04-08T08:59:10.982Z,99.90
2018-04-08T09:01:39.461Z,99.90
2018-04-08T09:04:08.119Z,99.90
2018-04-08T09:06:36.737Z,99.90
2018-04-08T09:09:05.484Z,99.90
2018-04-08T09:11:33.991Z,99.90
2018-04-08T09:14:02.510Z,99.90
2018-04-08T09:16:30.767Z,99.90
2018-04-08T09:19:16.711Z,99.90
2018-04-08T09:21:57.783Z,99.90
2018-04-08T09:24:26.799Z,99.90
2018-04-08T09:26:54.726Z,99.90
2018-04-08T09:29:23.230Z,99.90
2018-04-08T09:31:52.277Z,99.90
2018-04-08T09:34:20.574Z,99.90
2018-04-08T09:36:49.059Z,99.90
2018-04-08T09:39:17.308Z,99.90
2018-04-08T09:41:45.814Z,99.90
2018-04-08T09:44:14.424Z,99.90
2018-04-08T09:46:43.686Z,99.90
2018-04-08T09:49:12.251Z,99.90
2018-04-08T09:51:40.741Z,99.90
2018-04-08T09:54:09.264Z,99.90
2018-04-08T09:56:37.543Z,99.90
2018-04-08T09:59:05.797Z,99.90
2018-04-08T10:01:39.578Z,99.90
2018-04-08T10:04:08.603Z,99.90
2018-04-08T10:06:37.124Z,99.90
2018-04-08T10:09:06.452Z,99.90
2018-04-08T10:11:34.978Z,99.90
2018-04-08T10:14:03.578Z,99.90
2018-04-08T10:16:32.061Z,99.90
2018-04-08T10:19:00.335Z,99.90
2018-04-08T10:21:28.934Z,99.90
2018-04-08T10:23:58.005Z,99.90
2018-04-08T10:26:26.490Z,99.90
2018-04-08T10:28:54.993Z,99.90
2018-04-08T10:31:24.259Z,99.90
2018-04-08T10:33:52.818Z,99.90
2018-04-08T10:36:21.329Z,99.90
2018-04-08T10:38:50.010Z,99.90
2018-04-08T10:41:18.567Z,99.90
2018-04-08T10:43:47.093Z,99.90
2018-04-08T10:46:15.583Z,99.90
2018-04-08T10:48:44.067Z,99.90
2018-04-08T10:51:12.355Z,99.90
2018-04-08T10:53:41.622Z,99.60
2018-04-08T10:56:10.123Z,99.80
2018-04-08T10:58:38.627Z,99.90
2018-04-08T11:01:07.923Z,99.90
2018-04-08T11:03:37.179Z,99.90
2018-04-08T11:06:05.690Z,99.90
2018-04-08T11:08:34.170Z,99.90
2018-04-08T11:11:02.676Z,99.90
2018-04-08T11:13:31.010Z,99.90
2018-04-08T11:15:59.562Z,99.60
2018-04-08T11:18:28.039Z,99.90
2018-04-08T11:20:57.050Z,96.10
2018-04-08T11:23:25.529Z,95.80
2018-04-08T11:25:54.182Z,95.70
2018-04-08T11:28:22.670Z,98.70
2018-04-08T11:30:51.961Z,88.80
2018-04-08T11:33:21.290Z,88.40
2018-04-08T11:35:50.546Z,95.10
2018-04-08T11:38:19.066Z,95.00
2018-04-08T11:40:48.315Z,91.10
2018-04-08T11:43:16.825Z,91.00
2018-04-08T11:45:45.310Z,90.20
2018-04-08T11:48:15.390Z,80.30
2018-04-08T11:50:43.930Z,80.40
2018-04-08T11:53:13.201Z,66.10
2018-04-08T11:55:41.862Z,66.20
2018-04-08T11:58:10.186Z,65.20
2018-04-08T12:00:38.714Z,62.70
2018-04-08T12:03:06.991Z,65.80
2018-04-08T12:05:35.473Z,59.00
2018-04-08T12:08:03.660Z,61.20
2018-04-08T12:10:31.982Z,57.70
2018-04-08T12:13:00.586Z,63.00
2018-04-08T12:15:29.851Z,61.60
2018-04-08T12:17:58.318Z,61.70
2018-04-08T12:20:26.814Z,57.70
2018-04-08T12:22:55.079Z,57.70
2018-04-08T12:25:23.340Z,59.60
2018-04-08T12:27:51.583Z,59.50
2018-04-08T12:30:20.607Z,60.20
2018-04-08T12:32:48.852Z,60.10
2018-04-08T12:35:18.195Z,56.70
2018-04-08T12:37:46.687Z,56.60
2018-04-08T12:40:15.179Z,56.40
2018-04-08T12:42:43.659Z,48.00
2018-04-08T12:45:12.163Z,49.70
2018-04-08T12:47:40.561Z,50.50
2018-04-08T12:50:09.600Z,55.90
2018-04-08T12:52:38.088Z,56.00
2018-04-08T12:55:06.511Z,50.90
2018-04-08T12:57:35.059Z,50.20
2018-04-08T13:00:03.210Z,51.20
2018-04-08T13:02:31.499Z,51.70
2018-04-08T13:05:00.022Z,58.60
2018-04-08T13:07:28.274Z,56.60
2018-04-08T13:09:56.775Z,54.90
2018-04-08T13:12:25.068Z,57.70
2018-04-08T13:14:53.554Z,55.20
2018-04-08T13:17:22.144Z,53.10
2018-04-08T13:19:51.142Z,53.90
2018-04-08T13:22:20.405Z,52.10
2018-04-08T13:24:48.890Z,52.30
2018-04-08T13:27:17.371Z,53.50
2018-04-08T13:29:45.880Z,52.90
2018-04-08T13:32:15.281Z,52.50
2018-04-08T13:34:43.789Z,52.50
2018-04-08T13:42:12.139Z,54.40
2018-04-08T13:44:41.579Z,52.40
2018-04-08T13:47:10.071Z,52.10
2018-04-08T13:49:38.546Z,50.50
2018-04-08T13:52:07.075Z,52.80
2018-04-08T13:54:35.610Z,55.10
2018-04-08T13:57:04.111Z,55.90
2018-04-08T13:59:33.371Z,51.80
2018-04-08T14:02:01.625Z,51.50
2018-04-08T14:04:30.087Z,55.40
2018-04-08T14:06:59.527Z,46.30
2018-04-08T14:09:28.008Z,46.20
2018-04-08T14:11:56.530Z,47.50
2018-04-08T14:14:25.063Z,46.50
2018-04-08T14:16:53.768Z,46.10
2018-04-08T14:19:22.243Z,47.80
2018-04-08T14:21:50.805Z,46.00
2018-04-08T14:24:19.342Z,46.80
2018-04-08T14:26:47.814Z,44.90
2018-04-08T14:29:16.342Z,46.10
2018-04-08T14:31:45.579Z,45.70
2018-04-08T14:34:15.734Z,45.70
2018-04-08T14:36:43.991Z,47.00
2018-04-08T14:39:12.508Z,46.20
2018-04-08T14:41:41.774Z,45.20
2018-04-08T14:44:10.334Z,45.20
2018-04-08T14:46:39.610Z,45.80
2018-04-08T14:49:09.874Z,48.60
2018-04-08T14:51:38.295Z,48.00
2018-04-08T14:54:06.782Z,47.90
2018-04-08T14:56:36.183Z,43.70
2018-04-08T14:59:05.325Z,44.30
2018-04-08T15:01:34.351Z,44.30
2018-04-08T15:14:00.120Z,43.80
2018-04-08T15:31:26.354Z,46.90
